sensor_id;sensor_type;location;lat;lon;timestamp;pressure;altitude;pressure_sealevel;temperature;humidity
52745;BME280;38637;49.984;20.426;2023-04-29T00:00:17;99179.56;;;6.77;77.36
52745;BME280;38637;49.984;20.426;2023-04-29T00:02:42;99184.63;;;6.73;77.74
52745;BME280;38637;49.984;20.426;2023-04-29T00:05:08;99184.06;;;6.71;78.28
52745;BME280;38637;49.984;20.426;2023-04-29T00:07:33;99176.41;;;6.68;78.15
52745;BME280;38637;49.984;20.426;2023-04-29T00:09:59;99176.00;;;6.76;77.73
52745;BME280;38637;49.984;20.426;2023-04-29T00:12:25;99178.22;;;6.79;78.24
52745;BME280;38637;49.984;20.426;2023-04-29T00:14:50;99183.09;;;6.77;78.37
52745;BME280;38637;49.984;20.426;2023-04-29T00:17:15;99179.91;;;6.80;78.32
52745;BME280;38637;49.984;20.426;2023-04-29T00:19:41;99176.72;;;6.83;77.55
52745;BME280;38637;49.984;20.426;2023-04-29T00:22:07;99177.75;;;6.82;77.54
52745;BME280;38637;49.984;20.426;2023-04-29T00:24:33;99173.06;;;6.78;77.66
52745;BME280;38637;49.984;20.426;2023-04-29T00:26:58;99181.66;;;6.86;77.42
52745;BME280;38637;49.984;20.426;2023-04-29T00:29:24;99180.34;;;6.89;77.11
52745;BME280;38637;49.984;20.426;2023-04-29T00:31:49;99179.97;;;6.85;77.34
52745;BME280;38637;49.984;20.426;2023-04-29T00:34:15;99184.75;;;6.78;78.59
52745;BME280;38637;49.984;20.426;2023-04-29T00:36:40;99177.56;;;6.72;79.09
52745;BME280;38637;49.984;20.426;2023-04-29T00:39:06;99175.66;;;6.73;79.08
52745;BME280;38637;49.984;20.426;2023-04-29T00:41:32;99174.75;;;6.67;79.25
52745;BME280;38637;49.984;20.426;2023-04-29T00:43:57;99176.84;;;6.77;78.73
52745;BME280;38637;49.984;20.426;2023-04-29T00:46:22;99178.59;;;6.83;78.47
52745;BME280;38637;49.984;20.426;2023-04-29T00:48:48;99178.94;;;6.86;78.44
52745;BME280;38637;49.984;20.426;2023-04-29T00:51:15;99171.03;;;6.85;78.87
52745;BME280;38637;49.984;20.426;2023-04-29T00:53:41;99173.66;;;6.80;79.94
52745;BME280;38637;49.984;20.426;2023-04-29T00:56:07;99171.44;;;6.77;79.93
52745;BME280;38637;49.984;20.426;2023-04-29T00:58:32;99178.50;;;6.78;79.68
52745;BME280;38637;49.984;20.426;2023-04-29T01:01:01;99169.53;;;6.77;79.43
52745;BME280;38637;49.984;20.426;2023-04-29T01:03:28;99172.47;;;6.76;79.74
52745;BME280;38637;49.984;20.426;2023-04-29T01:06:22;99175.44;;;6.74;79.36
52745;BME280;38637;49.984;20.426;2023-04-29T01:11:31;99178.88;;;6.70;80.08
52745;BME280;38637;49.984;20.426;2023-04-29T01:13:59;99175.09;;;6.71;79.69
52745;BME280;38637;49.984;20.426;2023-04-29T01:16:50;99174.63;;;6.74;79.35
52745;BME280;38637;49.984;20.426;2023-04-29T01:19:46;99177.09;;;6.75;79.50
52745;BME280;38637;49.984;20.426;2023-04-29T01:22:12;99173.22;;;6.71;79.74
52745;BME280;38637;49.984;20.426;2023-04-29T01:24:45;99180.16;;;6.67;80.19
52745;BME280;38637;49.984;20.426;2023-04-29T01:27:45;99178.53;;;6.66;80.28
52745;BME280;38637;49.984;20.426;2023-04-29T01:35:44;99178.78;;;6.64;80.05
52745;BME280;38637;49.984;20.426;2023-04-29T01:38:24;99178.31;;;6.67;80.01
52745;BME280;38637;49.984;20.426;2023-04-29T01:41:26;99178.88;;;6.70;80.00
52745;BME280;38637;49.984;20.426;2023-04-29T01:43:50;99176.16;;;6.70;80.24
52745;BME280;38637;49.984;20.426;2023-04-29T01:46:17;99178.63;;;6.71;80.01
52745;BME280;38637;49.984;20.426;2023-04-29T01:48:45;99174.03;;;6.72;80.12
52745;BME280;38637;49.984;20.426;2023-04-29T01:51:11;99180.28;;;6.72;80.27
52745;BME280;38637;49.984;20.426;2023-04-29T01:53:36;99182.41;;;6.70;80.13
52745;BME280;38637;49.984;20.426;2023-04-29T01:56:03;99181.84;;;6.68;80.87
52745;BME280;38637;49.984;20.426;2023-04-29T01:58:29;99179.00;;;6.63;81.08
52745;BME280;38637;49.984;20.426;2023-04-29T02:00:54;99180.31;;;6.60;81.42
52745;BME280;38637;49.984;20.426;2023-04-29T02:03:19;99177.38;;;6.62;81.17
52745;BME280;38637;49.984;20.426;2023-04-29T02:05:45;99178.53;;;6.66;81.11
52745;BME280;38637;49.984;20.426;2023-04-29T02:08:10;99183.47;;;6.69;81.45
52745;BME280;38637;49.984;20.426;2023-04-29T02:10:35;99172.63;;;6.69;81.66
52745;BME280;38637;49.984;20.426;2023-04-29T02:13:01;99177.56;;;6.72;81.55
52745;BME280;38637;49.984;20.426;2023-04-29T02:15:27;99170.84;;;6.75;81.42
52745;BME280;38637;49.984;20.426;2023-04-29T02:17:52;99169.88;;;6.81;81.24
52745;BME280;38637;49.984;20.426;2023-04-29T02:20:18;99170.19;;;6.84;80.88
52745;BME280;38637;49.984;20.426;2023-04-29T02:22:44;99167.00;;;6.87;81.07
52745;BME280;38637;49.984;20.426;2023-04-29T02:25:10;99163.81;;;6.90;80.99
52745;BME280;38637;49.984;20.426;2023-04-29T02:27:35;99166.84;;;6.94;81.07
52745;BME280;38637;49.984;20.426;2023-04-29T02:30:01;99161.75;;;6.98;81.10
52745;BME280;38637;49.984;20.426;2023-04-29T02:32:26;99162.25;;;6.95;81.84
52745;BME280;38637;49.984;20.426;2023-04-29T02:34:51;99163.16;;;7.00;81.57
52745;BME280;38637;49.984;20.426;2023-04-29T02:37:17;99156.69;;;7.01;82.33
52745;BME280;38637;49.984;20.426;2023-04-29T02:39:42;99152.56;;;6.99;83.21
52745;BME280;38637;49.984;20.426;2023-04-29T02:42:08;99152.06;;;7.02;82.59
52745;BME280;38637;49.984;20.426;2023-04-29T02:44:33;99152.06;;;7.02;83.18
52745;BME280;38637;49.984;20.426;2023-04-29T02:46:58;99147.84;;;6.94;84.54
52745;BME280;38637;49.984;20.426;2023-04-29T02:49:24;99150.50;;;6.89;85.25
52745;BME280;38637;49.984;20.426;2023-04-29T02:51:49;99148.00;;;6.87;85.16
52745;BME280;38637;49.984;20.426;2023-04-29T02:54:15;99152.47;;;6.94;85.47
52745;BME280;38637;49.984;20.426;2023-04-29T02:56:41;99143.34;;;7.00;84.92
52745;BME280;38637;49.984;20.426;2023-04-29T02:59:07;99141.06;;;7.08;84.16
52745;BME280;38637;49.984;20.426;2023-04-29T03:01:32;99159.69;;;7.17;83.83
52745;BME280;38637;49.984;20.426;2023-04-29T03:03:57;99144.53;;;7.21;84.17
52745;BME280;38637;49.984;20.426;2023-04-29T03:06:23;99142.63;;;7.21;84.53
52745;BME280;38637;49.984;20.426;2023-04-29T03:08:48;99140.03;;;7.26;83.84
52745;BME280;38637;49.984;20.426;2023-04-29T03:11:13;99141.75;;;7.32;83.44
52745;BME280;38637;49.984;20.426;2023-04-29T03:13:39;99145.28;;;7.33;84.03
52745;BME280;38637;49.984;20.426;2023-04-29T03:16:04;99137.13;;;7.33;84.60
52745;BME280;38637;49.984;20.426;2023-04-29T03:18:30;99152.34;;;7.34;84.61
52745;BME280;38637;49.984;20.426;2023-04-29T03:20:56;99149.63;;;7.34;84.70
52745;BME280;38637;49.984;20.426;2023-04-29T03:23:21;99147.50;;;7.36;84.57
52745;BME280;38637;49.984;20.426;2023-04-29T03:25:47;99142.66;;;7.38;84.22
52745;BME280;38637;49.984;20.426;2023-04-29T03:28:12;99147.34;;;7.43;84.05
52745;BME280;38637;49.984;20.426;2023-04-29T03:30:37;99147.44;;;7.48;83.81
52745;BME280;38637;49.984;20.426;2023-04-29T03:33:03;99144.78;;;7.53;84.08
52745;BME280;38637;49.984;20.426;2023-04-29T03:35:28;99150.31;;;7.58;83.75
52745;BME280;38637;49.984;20.426;2023-04-29T03:37:53;99134.59;;;7.60;83.18
52745;BME280;38637;49.984;20.426;2023-04-29T03:40:19;99146.69;;;7.69;82.82
52745;BME280;38637;49.984;20.426;2023-04-29T03:42:44;99146.75;;;7.74;82.27
52745;BME280;38637;49.984;20.426;2023-04-29T03:45:10;99144.59;;;7.76;82.77
52745;BME280;38637;49.984;20.426;2023-04-29T03:47:38;99144.44;;;7.83;82.57
52745;BME280;38637;49.984;20.426;2023-04-29T03:50:04;99140.97;;;7.88;82.27
52745;BME280;38637;49.984;20.426;2023-04-29T03:52:29;99140.81;;;7.94;81.91
52745;BME280;38637;49.984;20.426;2023-04-29T03:54:55;99140.31;;;7.97;81.58
52745;BME280;38637;49.984;20.426;2023-04-29T03:57:20;99140.13;;;8.04;80.51
52745;BME280;38637;49.984;20.426;2023-04-29T03:59:45;99148.34;;;8.09;79.76
52745;BME280;38637;49.984;20.426;2023-04-29T04:02:15;99136.97;;;8.12;79.12
52745;BME280;38637;49.984;20.426;2023-04-29T04:04:40;99140.91;;;8.21;79.13
52745;BME280;38637;49.984;20.426;2023-04-29T04:07:06;99143.69;;;8.26;78.48
52745;BME280;38637;49.984;20.426;2023-04-29T04:09:31;99150.00;;;8.32;78.11
52745;BME280;38637;49.984;20.426;2023-04-29T04:11:57;99140.03;;;8.38;77.88
52745;BME280;38637;49.984;20.426;2023-04-29T04:14:23;99136.06;;;8.45;77.29
52745;BME280;38637;49.984;20.426;2023-04-29T04:16:48;99144.78;;;8.47;77.75
52745;BME280;38637;49.984;20.426;2023-04-29T04:19:15;99136.91;;;8.46;78.51
52745;BME280;38637;49.984;20.426;2023-04-29T04:21:40;99141.75;;;8.44;79.43
52745;BME280;38637;49.984;20.426;2023-04-29T04:24:06;99140.88;;;8.38;80.23
52745;BME280;38637;49.984;20.426;2023-04-29T04:26:31;99147.63;;;8.36;80.38
52745;BME280;38637;49.984;20.426;2023-04-29T04:28:57;99135.09;;;8.35;80.41
52745;BME280;38637;49.984;20.426;2023-04-29T04:31:22;99141.72;;;8.39;80.24
52745;BME280;38637;49.984;20.426;2023-04-29T04:33:48;99131.66;;;8.39;80.46
52745;BME280;38637;49.984;20.426;2023-04-29T04:36:13;99131.38;;;8.41;80.65
52745;BME280;38637;49.984;20.426;2023-04-29T04:38:38;99131.44;;;8.46;80.38
52745;BME280;38637;49.984;20.426;2023-04-29T04:41:06;99124.19;;;8.51;79.72
52745;BME280;38637;49.984;20.426;2023-04-29T04:43:32;99130.25;;;8.59;79.16
52745;BME280;38637;49.984;20.426;2023-04-29T04:45:57;99120.47;;;8.63;78.59
52745;BME280;38637;49.984;20.426;2023-04-29T04:48:23;99127.88;;;8.67;78.25
52745;BME280;38637;49.984;20.426;2023-04-29T04:50:48;99129.59;;;8.73;77.74
52745;BME280;38637;49.984;20.426;2023-04-29T04:53:13;99125.84;;;8.80;77.58
52745;BME280;38637;49.984;20.426;2023-04-29T04:55:38;99127.78;;;8.84;77.23
52745;BME280;38637;49.984;20.426;2023-04-29T04:58:04;99117.78;;;8.90;76.85
52745;BME280;38637;49.984;20.426;2023-04-29T05:00:29;99131.44;;;8.95;76.70
52745;BME280;38637;49.984;20.426;2023-04-29T05:02:55;99127.94;;;9.00;76.48
52745;BME280;38637;49.984;20.426;2023-04-29T05:05:20;99138.09;;;9.04;75.98
52745;BME280;38637;49.984;20.426;2023-04-29T05:07:45;99129.13;;;9.09;75.80
52745;BME280;38637;49.984;20.426;2023-04-29T05:10:11;99136.25;;;9.15;75.35
52745;BME280;38637;49.984;20.426;2023-04-29T05:12:36;99132.50;;;9.21;74.90
52745;BME280;38637;49.984;20.426;2023-04-29T05:15:02;99124.38;;;9.26;74.72
52745;BME280;38637;49.984;20.426;2023-04-29T05:17:28;99128.81;;;9.32;74.33
52745;BME280;38637;49.984;20.426;2023-04-29T05:19:54;99128.28;;;9.35;74.28
52745;BME280;38637;49.984;20.426;2023-04-29T05:22:19;99128.06;;;9.42;74.60
52745;BME280;38637;49.984;20.426;2023-04-29T05:24:45;99129.75;;;9.48;74.03
52745;BME280;38637;49.984;20.426;2023-04-29T05:27:12;99138.53;;;9.55;73.22
52745;BME280;38637;49.984;20.426;2023-04-29T05:29:38;99139.94;;;9.63;73.15
52745;BME280;38637;49.984;20.426;2023-04-29T05:32:03;99138.66;;;9.71;72.65
52745;BME280;38637;49.984;20.426;2023-04-29T05:34:28;99143.34;;;9.80;72.49
52745;BME280;38637;49.984;20.426;2023-04-29T05:36:54;99136.03;;;9.86;71.66
52745;BME280;38637;49.984;20.426;2023-04-29T05:39:19;99135.81;;;9.93;71.24
52745;BME280;38637;49.984;20.426;2023-04-29T05:41:45;99150.53;;;9.97;71.18
52745;BME280;38637;49.984;20.426;2023-04-29T05:44:10;99144.31;;;10.01;71.20
52745;BME280;38637;49.984;20.426;2023-04-29T05:46:35;99147.06;;;10.06;71.00
52745;BME280;38637;49.984;20.426;2023-04-29T05:49:01;99144.94;;;10.13;71.13
52745;BME280;38637;49.984;20.426;2023-04-29T05:51:26;99145.50;;;10.21;70.67
52745;BME280;38637;49.984;20.426;2023-04-29T05:53:53;99152.38;;;10.28;70.54
52745;BME280;38637;49.984;20.426;2023-04-29T05:56:18;99155.44;;;10.37;70.42
52745;BME280;38637;49.984;20.426;2023-04-29T05:58:44;99149.22;;;10.47;70.02
52745;BME280;38637;49.984;20.426;2023-04-29T06:01:09;99152.25;;;10.55;70.14
52745;BME280;38637;49.984;20.426;2023-04-29T06:03:35;99148.75;;;10.65;69.38
52745;BME280;38637;49.984;20.426;2023-04-29T06:06:01;99143.84;;;10.72;69.16
52745;BME280;38637;49.984;20.426;2023-04-29T06:08:26;99151.81;;;10.89;68.09
52745;BME280;38637;49.984;20.426;2023-04-29T06:10:52;99141.75;;;11.00;68.08
52745;BME280;38637;49.984;20.426;2023-04-29T06:13:17;99146.69;;;11.18;67.34
52745;BME280;38637;49.984;20.426;2023-04-29T06:15:43;99143.16;;;11.33;66.76
52745;BME280;38637;49.984;20.426;2023-04-29T06:18:08;99140.97;;;11.50;66.40
52745;BME280;38637;49.984;20.426;2023-04-29T06:20:34;99140.16;;;11.70;65.74
52745;BME280;38637;49.984;20.426;2023-04-29T06:22:59;99144.25;;;11.83;64.87
52745;BME280;38637;49.984;20.426;2023-04-29T06:25:24;99139.34;;;12.01;64.68
52745;BME280;38637;49.984;20.426;2023-04-29T06:27:50;99136.25;;;12.17;64.59
52745;BME280;38637;49.984;20.426;2023-04-29T06:30:15;99134.81;;;12.46;63.83
52745;BME280;38637;49.984;20.426;2023-04-29T06:32:40;99143.75;;;12.67;62.90
52745;BME280;38637;49.984;20.426;2023-04-29T06:35:06;99138.19;;;12.87;62.04
52745;BME280;38637;49.984;20.426;2023-04-29T06:37:31;99129.84;;;13.07;61.91
52745;BME280;38637;49.984;20.426;2023-04-29T06:39:57;99134.13;;;13.24;61.38
52745;BME280;38637;49.984;20.426;2023-04-29T06:42:22;99125.56;;;13.36;60.63
52745;BME280;38637;49.984;20.426;2023-04-29T06:44:47;99131.28;;;13.39;60.00
52745;BME280;38637;49.984;20.426;2023-04-29T06:47:13;99135.66;;;13.40;60.00
52745;BME280;38637;49.984;20.426;2023-04-29T06:49:39;99135.09;;;13.43;60.56
52745;BME280;38637;49.984;20.426;2023-04-29T06:52:04;99129.94;;;13.37;59.87
52745;BME280;38637;49.984;20.426;2023-04-29T06:54:29;99137.09;;;13.32;59.87
52745;BME280;38637;49.984;20.426;2023-04-29T06:56:55;99133.88;;;13.25;60.03
52745;BME280;38637;49.984;20.426;2023-04-29T06:59:22;99141.53;;;13.23;60.10
52745;BME280;38637;49.984;20.426;2023-04-29T07:01:47;99131.69;;;13.22;60.23
52745;BME280;38637;49.984;20.426;2023-04-29T07:04:12;99129.44;;;13.24;60.67
52745;BME280;38637;49.984;20.426;2023-04-29T07:06:38;99123.44;;;13.27;60.73
52745;BME280;38637;49.984;20.426;2023-04-29T07:09:03;99120.13;;;13.30;60.39
52745;BME280;38637;49.984;20.426;2023-04-29T07:11:28;99122.59;;;13.32;60.38
52745;BME280;38637;49.984;20.426;2023-04-29T07:13:54;99126.97;;;13.28;60.58
52745;BME280;38637;49.984;20.426;2023-04-29T07:16:20;99120.16;;;13.25;59.82
52745;BME280;38637;49.984;20.426;2023-04-29T07:18:46;99122.91;;;13.20;59.89
52745;BME280;38637;49.984;20.426;2023-04-29T07:21:12;99127.28;;;13.26;60.23
52745;BME280;38637;49.984;20.426;2023-04-29T07:23:38;99125.09;;;13.28;60.00
52745;BME280;38637;49.984;20.426;2023-04-29T07:26:14;99120.09;;;13.36;59.80
52745;BME280;38637;49.984;20.426;2023-04-29T07:28:41;99124.97;;;13.44;60.05
52745;BME280;38637;49.984;20.426;2023-04-29T07:31:07;99122.16;;;13.49;60.44
52745;BME280;38637;49.984;20.426;2023-04-29T07:33:33;99120.41;;;13.63;60.48
52745;BME280;38637;49.984;20.426;2023-04-29T07:35:59;99112.66;;;13.70;60.17
52745;BME280;38637;49.984;20.426;2023-04-29T07:38:25;99119.06;;;13.90;59.77
52745;BME280;38637;49.984;20.426;2023-04-29T07:40:50;99123.25;;;14.11;59.33
52745;BME280;38637;49.984;20.426;2023-04-29T07:43:16;99126.28;;;14.34;58.79
52745;BME280;38637;49.984;20.426;2023-04-29T07:45:41;99123.84;;;14.56;58.54
52745;BME280;38637;49.984;20.426;2023-04-29T07:48:06;99125.13;;;14.83;57.47
52745;BME280;38637;49.984;20.426;2023-04-29T07:50:35;99117.72;;;15.02;57.07
52745;BME280;38637;49.984;20.426;2023-04-29T07:53:01;99119.56;;;15.26;56.04
52745;BME280;38637;49.984;20.426;2023-04-29T07:55:27;99126.31;;;15.52;55.37
52745;BME280;38637;49.984;20.426;2023-04-29T07:57:55;99121.22;;;15.78;54.82
52745;BME280;38637;49.984;20.426;2023-04-29T08:00:21;99124.53;;;16.08;54.30
52745;BME280;38637;49.984;20.426;2023-04-29T08:02:54;99123.22;;;16.33;54.01
52745;BME280;38637;49.984;20.426;2023-04-29T08:05:19;99115.66;;;16.52;53.53
52745;BME280;38637;49.984;20.426;2023-04-29T08:07:46;99125.56;;;16.67;52.14
52745;BME280;38637;49.984;20.426;2023-04-29T08:10:12;99122.63;;;16.77;52.06
52745;BME280;38637;49.984;20.426;2023-04-29T08:12:37;99117.78;;;16.97;51.89
52745;BME280;38637;49.984;20.426;2023-04-29T08:15:03;99120.72;;;17.14;51.64
52745;BME280;38637;49.984;20.426;2023-04-29T08:17:29;99120.31;;;17.07;51.16
52745;BME280;38637;49.984;20.426;2023-04-29T08:19:54;99120.28;;;17.21;51.21
52745;BME280;38637;49.984;20.426;2023-04-29T08:22:20;99120.81;;;17.45;51.00
52745;BME280;38637;49.984;20.426;2023-04-29T08:24:45;99124.69;;;17.67;51.17
52745;BME280;38637;49.984;20.426;2023-04-29T08:27:10;99118.63;;;17.79;50.67
52745;BME280;38637;49.984;20.426;2023-04-29T08:29:35;99118.72;;;17.96;50.01
52745;BME280;38637;49.984;20.426;2023-04-29T08:32:01;99123.81;;;18.11;49.25
52745;BME280;38637;49.984;20.426;2023-04-29T08:34:26;99126.16;;;18.27;48.58
52745;BME280;38637;49.984;20.426;2023-04-29T08:36:52;99124.66;;;18.52;48.29
52745;BME280;38637;49.984;20.426;2023-04-29T08:39:18;99121.19;;;18.77;48.21
52745;BME280;38637;49.984;20.426;2023-04-29T08:41:43;99118.75;;;18.93;47.49
52745;BME280;38637;49.984;20.426;2023-04-29T08:44:13;99114.69;;;18.91;46.12
52745;BME280;38637;49.984;20.426;2023-04-29T08:46:39;99112.59;;;19.05;46.71
52745;BME280;38637;49.984;20.426;2023-04-29T08:49:05;99110.31;;;19.16;46.48
52745;BME280;38637;49.984;20.426;2023-04-29T08:51:31;99111.28;;;19.37;46.51
52745;BME280;38637;49.984;20.426;2023-04-29T08:53:58;99115.84;;;19.50;46.12
52745;BME280;38637;49.984;20.426;2023-04-29T08:56:24;99114.56;;;19.65;45.99
52745;BME280;38637;49.984;20.426;2023-04-29T08:58:50;99113.56;;;19.70;45.93
52745;BME280;38637;49.984;20.426;2023-04-29T09:01:22;99107.22;;;19.69;45.72
52745;BME280;38637;49.984;20.426;2023-04-29T09:06:32;99110.00;;;19.69;45.57
52745;BME280;38637;49.984;20.426;2023-04-29T09:08:58;99101.19;;;19.67;45.48
52745;BME280;38637;49.984;20.426;2023-04-29T09:11:26;99103.63;;;19.60;44.87
52745;BME280;38637;49.984;20.426;2023-04-29T09:13:57;99106.53;;;19.64;45.60
52745;BME280;38637;49.984;20.426;2023-04-29T09:16:23;99111.28;;;19.63;45.08
52745;BME280;38637;49.984;20.426;2023-04-29T09:18:50;99109.97;;;19.52;44.51
52745;BME280;38637;49.984;20.426;2023-04-29T09:21:20;99106.09;;;19.44;44.65
52745;BME280;38637;49.984;20.426;2023-04-29T09:23:48;99109.97;;;19.43;45.12
52745;BME280;38637;49.984;20.426;2023-04-29T09:26:14;99112.44;;;19.45;45.14
52745;BME280;38637;49.984;20.426;2023-04-29T09:28:40;99107.69;;;19.45;45.19
52745;BME280;38637;49.984;20.426;2023-04-29T09:31:09;99101.00;;;19.46;44.98
52745;BME280;38637;49.984;20.426;2023-04-29T09:34:07;99097.13;;;19.56;44.58
52745;BME280;38637;49.984;20.426;2023-04-29T09:36:46;99095.63;;;19.59;44.34
52745;BME280;38637;49.984;20.426;2023-04-29T09:39:16;99092.84;;;19.59;44.12
52745;BME280;38637;49.984;20.426;2023-04-29T09:44:17;99100.19;;;19.63;44.55
52745;BME280;38637;49.984;20.426;2023-04-29T09:46:42;99093.53;;;19.64;44.39
52745;BME280;38637;49.984;20.426;2023-04-29T09:51:56;99090.72;;;19.56;44.45
52745;BME280;38637;49.984;20.426;2023-04-29T09:54:23;99085.41;;;19.33;44.25
52745;BME280;38637;49.984;20.426;2023-04-29T09:56:51;99091.28;;;19.32;44.43
52745;BME280;38637;49.984;20.426;2023-04-29T09:59:18;99084.91;;;19.40;44.09
52745;BME280;38637;49.984;20.426;2023-04-29T10:01:46;99076.44;;;19.45;44.50
52745;BME280;38637;49.984;20.426;2023-04-29T10:04:14;99087.16;;;19.46;44.63
52745;BME280;38637;49.984;20.426;2023-04-29T10:06:40;99072.50;;;19.46;44.79
52745;BME280;38637;49.984;20.426;2023-04-29T10:09:07;99073.84;;;19.22;45.03
52745;BME280;38637;49.984;20.426;2023-04-29T10:11:33;99076.94;;;19.12;46.28
52745;BME280;38637;49.984;20.426;2023-04-29T10:13:58;99077.75;;;19.13;46.11
52745;BME280;38637;49.984;20.426;2023-04-29T10:16:28;99068.00;;;18.98;46.03
52745;BME280;38637;49.984;20.426;2023-04-29T10:18:59;99062.13;;;18.73;45.86
52745;BME280;38637;49.984;20.426;2023-04-29T10:21:29;99065.50;;;18.70;45.75
52745;BME280;38637;49.984;20.426;2023-04-29T10:23:58;99061.47;;;18.76;46.28
52745;BME280;38637;49.984;20.426;2023-04-29T10:26:27;99065.34;;;18.75;45.94
52745;BME280;38637;49.984;20.426;2023-04-29T10:28:55;99062.59;;;18.84;45.91
52745;BME280;38637;49.984;20.426;2023-04-29T10:31:21;99052.03;;;18.95;45.66
52745;BME280;38637;49.984;20.426;2023-04-29T10:33:47;99056.91;;;19.06;45.86
52745;BME280;38637;49.984;20.426;2023-04-29T10:36:14;99053.31;;;18.80;45.20
52745;BME280;38637;49.984;20.426;2023-04-29T10:38:44;99061.28;;;18.81;45.87
52745;BME280;38637;49.984;20.426;2023-04-29T10:41:19;99062.28;;;19.03;46.00
52745;BME280;38637;49.984;20.426;2023-04-29T10:43:45;99052.81;;;19.30;45.67
52745;BME280;38637;49.984;20.426;2023-04-29T10:48:43;99049.84;;;19.52;44.97
52745;BME280;38637;49.984;20.426;2023-04-29T10:51:09;99055.09;;;19.45;45.22
52745;BME280;38637;49.984;20.426;2023-04-29T10:53:34;99053.63;;;19.31;44.97
52745;BME280;38637;49.984;20.426;2023-04-29T10:56:05;99047.28;;;19.21;45.98
52745;BME280;38637;49.984;20.426;2023-04-29T10:58:43;99052.16;;;19.42;45.59
52745;BME280;38637;49.984;20.426;2023-04-29T11:01:09;99047.44;;;19.51;45.47
52745;BME280;38637;49.984;20.426;2023-04-29T11:04:00;99050.72;;;19.36;45.87
52745;BME280;38637;49.984;20.426;2023-04-29T11:09:08;99039.81;;;18.87;46.78
52745;BME280;38637;49.984;20.426;2023-04-29T11:14:11;99045.09;;;18.57;46.46
52745;BME280;38637;49.984;20.426;2023-04-29T11:16:37;99046.75;;;18.58;46.55
52745;BME280;38637;49.984;20.426;2023-04-29T11:21:28;99048.72;;;18.58;46.47
52745;BME280;38637;49.984;20.426;2023-04-29T11:23:55;99047.25;;;18.69;46.60
52745;BME280;38637;49.984;20.426;2023-04-29T11:26:22;99044.03;;;18.76;46.49
52745;BME280;38637;49.984;20.426;2023-04-29T11:28:50;99044.69;;;18.90;46.56
52745;BME280;38637;49.984;20.426;2023-04-29T11:31:16;99045.03;;;19.06;46.27
52745;BME280;38637;49.984;20.426;2023-04-29T11:33:41;99040.94;;;19.03;46.29
52745;BME280;38637;49.984;20.426;2023-04-29T11:36:08;99047.94;;;19.10;46.58
52745;BME280;38637;49.984;20.426;2023-04-29T11:38:38;99043.41;;;19.22;46.77
52745;BME280;38637;49.984;20.426;2023-04-29T11:41:04;99034.41;;;19.34;46.57
52745;BME280;38637;49.984;20.426;2023-04-29T11:43:29;99045.00;;;19.32;46.19
52745;BME280;38637;49.984;20.426;2023-04-29T11:45:55;99044.06;;;19.19;46.29
52745;BME280;38637;49.984;20.426;2023-04-29T11:48:21;99044.69;;;18.90;46.99
52745;BME280;38637;49.984;20.426;2023-04-29T11:50:47;99032.16;;;18.84;46.65
52745;BME280;38637;49.984;20.426;2023-04-29T11:53:14;99039.16;;;18.81;46.25
52745;BME280;38637;49.984;20.426;2023-04-29T11:55:43;99030.53;;;18.83;46.93
52745;BME280;38637;49.984;20.426;2023-04-29T11:58:09;99034.88;;;18.67;48.11
52745;BME280;38637;49.984;20.426;2023-04-29T12:00:34;99041.53;;;18.40;48.54
52745;BME280;38637;49.984;20.426;2023-04-29T12:03:00;99040.63;;;18.13;48.48
52745;BME280;38637;49.984;20.426;2023-04-29T12:05:25;99038.25;;;17.89;50.20
52745;BME280;38637;49.984;20.426;2023-04-29T12:07:51;99038.44;;;17.70;50.51
52745;BME280;38637;49.984;20.426;2023-04-29T12:10:16;99046.00;;;17.56;50.61
52745;BME280;38637;49.984;20.426;2023-04-29T12:12:42;99038.97;;;17.50;50.47
52745;BME280;38637;49.984;20.426;2023-04-29T12:15:09;99040.16;;;17.57;50.55
52745;BME280;38637;49.984;20.426;2023-04-29T12:17:35;99032.53;;;17.63;50.54
52745;BME280;38637;49.984;20.426;2023-04-29T12:20:01;99042.91;;;17.80;50.63
52745;BME280;38637;49.984;20.426;2023-04-29T12:22:31;99039.56;;;17.91;50.33
52745;BME280;38637;49.984;20.426;2023-04-29T12:24:56;99028.69;;;17.95;49.83
52745;BME280;38637;49.984;20.426;2023-04-29T12:27:22;99042.38;;;18.09;49.33
52745;BME280;38637;49.984;20.426;2023-04-29T12:29:50;99037.84;;;18.13;49.23
52745;BME280;38637;49.984;20.426;2023-04-29T12:32:17;99030.03;;;18.15;49.22
52745;BME280;38637;49.984;20.426;2023-04-29T12:34:44;99029.72;;;18.17;48.94
52745;BME280;38637;49.984;20.426;2023-04-29T12:37:10;99030.69;;;18.12;48.44
52745;BME280;38637;49.984;20.426;2023-04-29T12:39:37;99024.44;;;17.89;48.52
52745;BME280;38637;49.984;20.426;2023-04-29T12:42:02;99022.31;;;17.86;49.14
52745;BME280;38637;49.984;20.426;2023-04-29T12:44:35;99018.72;;;17.85;49.48
52745;BME280;38637;49.984;20.426;2023-04-29T12:47:08;99027.53;;;17.65;49.32
52745;BME280;38637;49.984;20.426;2023-04-29T12:49:35;99022.59;;;17.53;50.08
52745;BME280;38637;49.984;20.426;2023-04-29T12:52:01;99025.13;;;17.41;51.40
52745;BME280;38637;49.984;20.426;2023-04-29T12:54:27;99025.03;;;17.23;50.89
52745;BME280;38637;49.984;20.426;2023-04-29T12:56:52;99022.81;;;17.12;51.01
52745;BME280;38637;49.984;20.426;2023-04-29T12:59:17;99026.84;;;17.06;51.71
52745;BME280;38637;49.984;20.426;2023-04-29T13:01:43;99020.34;;;16.88;52.06
52745;BME280;38637;49.984;20.426;2023-04-29T13:04:08;99026.31;;;16.81;52.56
52745;BME280;38637;49.984;20.426;2023-04-29T13:06:36;99015.78;;;16.69;52.97
52745;BME280;38637;49.984;20.426;2023-04-29T13:09:06;99016.59;;;16.84;52.64
52745;BME280;38637;49.984;20.426;2023-04-29T13:11:35;99012.19;;;16.83;53.57
52745;BME280;38637;49.984;20.426;2023-04-29T13:14:01;99005.94;;;16.91;53.51
52745;BME280;38637;49.984;20.426;2023-04-29T13:16:26;99007.38;;;16.88;53.57
52745;BME280;38637;49.984;20.426;2023-04-29T13:18:52;99012.09;;;16.88;53.20